sensor_id;sensor_type;location;lat;lon;timestamp;temperature;humidity
18173;DHT22;9211;48.818;9.312;2022-07-29T00:00:49;21.70;99.90
18173;DHT22;9211;48.818;9.312;2022-07-29T00:03:15;21.70;99.90
18173;DHT22;9211;48.818;9.312;2022-07-29T00:05:42;21.80;99.90
18173;DHT22;9211;48.818;9.312;2022-07-29T00:08:09;21.70;99.90
18173;DHT22;9211;48.818;9.312;2022-07-29T00:10:38;21.60;99.90
18173;DHT22;9211;48.818;9.312;2022-07-29T00:13:05;21.50;99.90
18173;DHT22;9211;48.818;9.312;2022-07-29T00:15:32;21.50;99.90
18173;DHT22;9211;48.818;9.312;2022-07-29T00:17:59;21.40;99.90
18173;DHT22;9211;48.818;9.312;2022-07-29T00:20:26;21.30;99.90
18173;DHT22;9211;48.818;9.312;2022-07-29T00:22:53;21.30;99.90
18173;DHT22;9211;48.818;9.312;2022-07-29T00:25:20;21.30;99.90
18173;DHT22;9211;48.818;9.312;2022-07-29T00:27:48;21.30;99.90
18173;DHT22;9211;48.818;9.312;2022-07-29T00:30:15;21.30;99.90
18173;DHT22;9211;48.818;9.312;2022-07-29T00:32:42;21.30;99.90
18173;DHT22;9211;48.818;9.312;2022-07-29T00:35:09;21.20;99.90
18173;DHT22;9211;48.818;9.312;2022-07-29T00:37:59;21.20;99.90
18173;DHT22;9211;48.818;9.312;2022-07-29T00:40:26;21.10;99.90
18173;DHT22;9211;48.818;9.312;2022-07-29T00:42:55;21.10;99.90
18173;DHT22;9211;48.818;9.312;2022-07-29T00:45:22;21.10;99.90
18173;DHT22;9211;48.818;9.312;2022-07-29T00:47:50;21.10;99.90
18173;DHT22;9211;48.818;9.312;2022-07-29T00:50:17;21.10;99.90
18173;DHT22;9211;48.818;9.312;2022-07-29T00:52:44;21.10;99.90
18173;DHT22;9211;48.818;9.312;2022-07-29T00:55:13;21.00;99.90
18173;DHT22;9211;48.818;9.312;2022-07-29T00:57:42;21.00;99.90
18173;DHT22;9211;48.818;9.312;2022-07-29T01:00:14;20.90;99.90
18173;DHT22;9211;48.818;9.312;2022-07-29T01:02:41;20.90;99.90
18173;DHT22;9211;48.818;9.312;2022-07-29T01:05:08;21.00;99.90
18173;DHT22;9211;48.818;9.312;2022-07-29T01:07:37;21.10;99.90
18173;DHT22;9211;48.818;9.312;2022-07-29T01:10:09;21.00;99.90
18173;DHT22;9211;48.818;9.312;2022-07-29T01:12:38;20.90;99.90
18173;DHT22;9211;48.818;9.312;2022-07-29T01:15:07;21.00;99.90
18173;DHT22;9211;48.818;9.312;2022-07-29T01:17:41;21.10;99.90
18173;DHT22;9211;48.818;9.312;2022-07-29T01:20:13;21.10;99.90
18173;DHT22;9211;48.818;9.312;2022-07-29T01:23:11;21.00;99.90
18173;DHT22;9211;48.818;9.312;2022-07-29T01:28:42;21.10;99.90
18173;DHT22;9211;48.818;9.312;2022-07-29T01:31:16;21.00;99.90
18173;DHT22;9211;48.818;9.312;2022-07-29T01:33:45;21.00;99.90
18173;DHT22;9211;48.818;9.312;2022-07-29T01:36:22;21.00;99.90
18173;DHT22;9211;48.818;9.312;2022-07-29T01:38:56;20.90;99.90
18173;DHT22;9211;48.818;9.312;2022-07-29T01:41:25;20.90;99.90
18173;DHT22;9211;48.818;9.312;2022-07-29T01:44:01;20.90;99.90
18173;DHT22;9211;48.818;9.312;2022-07-29T01:46:33;20.90;99.90
18173;DHT22;9211;48.818;9.312;2022-07-29T01:49:05;20.90;99.90
18173;DHT22;9211;48.818;9.312;2022-07-29T01:51:38;20.80;99.90
18173;DHT22;9211;48.818;9.312;2022-07-29T01:54:10;20.80;99.90
18173;DHT22;9211;48.818;9.312;2022-07-29T01:56:42;20.80;99.90
18173;DHT22;9211;48.818;9.312;2022-07-29T01:59:11;20.70;99.90
18173;DHT22;9211;48.818;9.312;2022-07-29T02:01:40;20.60;99.90
18173;DHT22;9211;48.818;9.312;2022-07-29T02:04:11;20.50;99.90
18173;DHT22;9211;48.818;9.312;2022-07-29T02:06:40;20.50;99.90
18173;DHT22;9211;48.818;9.312;2022-07-29T02:09:10;20.40;99.90
18173;DHT22;9211;48.818;9.312;2022-07-29T02:11:40;20.40;99.90
18173;DHT22;9211;48.818;9.312;2022-07-29T02:14:12;20.40;99.90
18173;DHT22;9211;48.818;9.312;2022-07-29T02:16:41;20.40;99.90
18173;DHT22;9211;48.818;9.312;2022-07-29T02:19:10;20.50;99.90
18173;DHT22;9211;48.818;9.312;2022-07-29T02:21:39;20.40;99.90
18173;DHT22;9211;48.818;9.312;2022-07-29T02:24:10;20.40;99.90
18173;DHT22;9211;48.818;9.312;2022-07-29T02:26:40;20.30;99.90
18173;DHT22;9211;48.818;9.312;2022-07-29T02:29:08;20.20;99.90
18173;DHT22;9211;48.818;9.312;2022-07-29T02:31:38;20.20;99.90
18173;DHT22;9211;48.818;9.312;2022-07-29T02:34:08;20.20;99.90
18173;DHT22;9211;48.818;9.312;2022-07-29T02:36:36;20.10;99.90
18173;DHT22;9211;48.818;9.312;2022-07-29T02:39:05;20.10;99.90
18173;DHT22;9211;48.818;9.312;2022-07-29T02:41:38;20.20;99.90
18173;DHT22;9211;48.818;9.312;2022-07-29T02:44:13;20.30;99.90
18173;DHT22;9211;48.818;9.312;2022-07-29T02:46:48;20.40;99.90
18173;DHT22;9211;48.818;9.312;2022-07-29T02:49:20;20.30;99.90
18173;DHT22;9211;48.818;9.312;2022-07-29T02:51:53;20.40;99.90
18173;DHT22;9211;48.818;9.312;2022-07-29T02:54:26;20.40;99.90
18173;DHT22;9211;48.818;9.312;2022-07-29T02:56:54;20.40;99.90
18173;DHT22;9211;48.818;9.312;2022-07-29T02:59:26;20.40;99.90
18173;DHT22;9211;48.818;9.312;2022-07-29T03:01:57;20.30;99.90
18173;DHT22;9211;48.818;9.312;2022-07-29T03:04:26;20.20;99.90
18173;DHT22;9211;48.818;9.312;2022-07-29T03:06:55;20.20;99.90
18173;DHT22;9211;48.818;9.312;2022-07-29T03:09:25;20.00;99.90
18173;DHT22;9211;48.818;9.312;2022-07-29T03:11:53;19.70;99.90
18173;DHT22;9211;48.818;9.312;2022-07-29T03:14:21;19.70;99.90
18173;DHT22;9211;48.818;9.312;2022-07-29T03:16:49;19.70;99.90
18173;DHT22;9211;48.818;9.312;2022-07-29T03:19:19;19.80;99.90
18173;DHT22;9211;48.818;9.312;2022-07-29T03:21:47;19.80;99.90
18173;DHT22;9211;48.818;9.312;2022-07-29T03:24:29;19.80;99.90
18173;DHT22;9211;48.818;9.312;2022-07-29T03:26:56;19.70;99.90
18173;DHT22;9211;48.818;9.312;2022-07-29T03:29:24;19.70;99.90
18173;DHT22;9211;48.818;9.312;2022-07-29T03:31:51;19.70;99.90
18173;DHT22;9211;48.818;9.312;2022-07-29T03:34:20;19.70;99.90
18173;DHT22;9211;48.818;9.312;2022-07-29T03:36:47;19.60;99.90
18173;DHT22;9211;48.818;9.312;2022-07-29T03:39:17;19.70;99.90
18173;DHT22;9211;48.818;9.312;2022-07-29T03:41:46;19.60;99.90
18173;DHT22;9211;48.818;9.312;2022-07-29T03:44:15;19.60;99.90
18173;DHT22;9211;48.818;9.312;2022-07-29T03:46:44;19.70;99.90
18173;DHT22;9211;48.818;9.312;2022-07-29T03:49:15;19.60;99.90
18173;DHT22;9211;48.818;9.312;2022-07-29T03:51:44;19.60;99.90
18173;DHT22;9211;48.818;9.312;2022-07-29T03:54:11;19.60;99.90
18173;DHT22;9211;48.818;9.312;2022-07-29T03:56:40;19.50;99.90
18173;DHT22;9211;48.818;9.312;2022-07-29T03:59:09;19.40;99.90
18173;DHT22;9211;48.818;9.312;2022-07-29T04:01:37;19.40;99.90
18173;DHT22;9211;48.818;9.312;2022-07-29T04:04:07;19.40;99.90
18173;DHT22;9211;48.818;9.312;2022-07-29T04:06:39;19.30;99.90
18173;DHT22;9211;48.818;9.312;2022-07-29T04:09:08;19.20;99.90
18173;DHT22;9211;48.818;9.312;2022-07-29T04:11:36;19.30;99.90
18173;DHT22;9211;48.818;9.312;2022-07-29T04:14:03;19.40;99.90
18173;DHT22;9211;48.818;9.312;2022-07-29T04:16:30;19.50;99.90
18173;DHT22;9211;48.818;9.312;2022-07-29T04:18:57;19.60;99.90
18173;DHT22;9211;48.818;9.312;2022-07-29T04:21:24;19.50;99.90
18173;DHT22;9211;48.818;9.312;2022-07-29T04:23:51;19.50;99.90
18173;DHT22;9211;48.818;9.312;2022-07-29T04:26:20;19.50;99.90
18173;DHT22;9211;48.818;9.312;2022-07-29T04:28:47;19.40;99.90
18173;DHT22;9211;48.818;9.312;2022-07-29T04:31:14;19.40;99.90
18173;DHT22;9211;48.818;9.312;2022-07-29T04:33:41;19.40;99.90
18173;DHT22;9211;48.818;9.312;2022-07-29T04:36:08;19.40;99.90
18173;DHT22;9211;48.818;9.312;2022-07-29T04:38:37;19.50;99.90
18173;DHT22;9211;48.818;9.312;2022-07-29T04:41:04;19.70;99.90
18173;DHT22;9211;48.818;9.312;2022-07-29T04:43:34;19.80;99.90
18173;DHT22;9211;48.818;9.312;2022-07-29T04:46:01;19.80;99.90
18173;DHT22;9211;48.818;9.312;2022-07-29T04:48:28;19.80;99.90
18173;DHT22;9211;48.818;9.312;2022-07-29T04:50:55;19.70;99.90
18173;DHT22;9211;48.818;9.312;2022-07-29T04:53:23;19.70;99.90
18173;DHT22;9211;48.818;9.312;2022-07-29T04:55:50;19.80;99.90
18173;DHT22;9211;48.818;9.312;2022-07-29T04:58:17;19.80;99.90
18173;DHT22;9211;48.818;9.312;2022-07-29T05:00:46;19.90;99.90
18173;DHT22;9211;48.818;9.312;2022-07-29T05:03:13;19.90;99.90
18173;DHT22;9211;48.818;9.312;2022-07-29T05:05:40;20.00;99.90
18173;DHT22;9211;48.818;9.312;2022-07-29T05:08:08;20.00;99.90
18173;DHT22;9211;48.818;9.312;2022-07-29T05:10:35;20.00;99.90
18173;DHT22;9211;48.818;9.312;2022-07-29T05:13:04;20.00;99.90
18173;DHT22;9211;48.818;9.312;2022-07-29T05:15:32;20.00;99.90
18173;DHT22;9211;48.818;9.312;2022-07-29T05:18:00;20.10;99.90
18173;DHT22;9211;48.818;9.312;2022-07-29T05:20:28;20.10;99.90
18173;DHT22;9211;48.818;9.312;2022-07-29T05:22:56;20.00;99.90
18173;DHT22;9211;48.818;9.312;2022-07-29T05:25:23;20.00;99.90
18173;DHT22;9211;48.818;9.312;2022-07-29T05:27:50;20.20;99.90
18173;DHT22;9211;48.818;9.312;2022-07-29T05:30:17;20.20;99.90
18173;DHT22;9211;48.818;9.312;2022-07-29T05:32:44;20.30;99.90
18173;DHT22;9211;48.818;9.312;2022-07-29T05:35:13;20.40;99.90
18173;DHT22;9211;48.818;9.312;2022-07-29T05:37:41;20.40;99.90
18173;DHT22;9211;48.818;9.312;2022-07-29T05:40:09;20.50;99.90
18173;DHT22;9211;48.818;9.312;2022-07-29T05:42:36;20.50;99.90
18173;DHT22;9211;48.818;9.312;2022-07-29T05:45:04;20.70;99.90
18173;DHT22;9211;48.818;9.312;2022-07-29T05:47:31;20.80;99.90
18173;DHT22;9211;48.818;9.312;2022-07-29T05:49:58;20.90;99.90
18173;DHT22;9211;48.818;9.312;2022-07-29T05:52:26;20.90;99.90
18173;DHT22;9211;48.818;9.312;2022-07-29T05:54:54;21.00;99.90
18173;DHT22;9211;48.818;9.312;2022-07-29T05:57:23;21.10;99.90
18173;DHT22;9211;48.818;9.312;2022-07-29T05:59:51;21.20;99.90
18173;DHT22;9211;48.818;9.312;2022-07-29T06:02:18;21.30;99.90
18173;DHT22;9211;48.818;9.312;2022-07-29T06:04:45;21.40;99.90
18173;DHT22;9211;48.818;9.312;2022-07-29T06:07:12;21.50;99.90
18173;DHT22;9211;48.818;9.312;2022-07-29T06:09:41;21.60;99.90
18173;DHT22;9211;48.818;9.312;2022-07-29T06:12:08;21.70;99.90
18173;DHT22;9211;48.818;9.312;2022-07-29T06:14:35;21.80;99.90
18173;DHT22;9211;48.818;9.312;2022-07-29T06:17:03;21.90;99.90
18173;DHT22;9211;48.818;9.312;2022-07-29T06:19:31;22.00;99.90
18173;DHT22;9211;48.818;9.312;2022-07-29T06:22:00;22.10;99.90
18173;DHT22;9211;48.818;9.312;2022-07-29T06:24:27;22.10;99.90
18173;DHT22;9211;48.818;9.312;2022-07-29T06:26:55;22.10;99.90
18173;DHT22;9211;48.818;9.312;2022-07-29T06:29:22;22.20;99.90
18173;DHT22;9211;48.818;9.312;2022-07-29T06:31:50;22.30;99.90
18173;DHT22;9211;48.818;9.312;2022-07-29T06:34:17;22.50;99.90
18173;DHT22;9211;48.818;9.312;2022-07-29T06:36:45;22.60;99.90
18173;DHT22;9211;48.818;9.312;2022-07-29T06:39:12;22.70;99.90
18173;DHT22;9211;48.818;9.312;2022-07-29T06:41:39;22.80;99.90
18173;DHT22;9211;48.818;9.312;2022-07-29T06:44:10;23.00;99.90
18173;DHT22;9211;48.818;9.312;2022-07-29T06:46:37;23.20;99.90
18173;DHT22;9211;48.818;9.312;2022-07-29T06:49:04;23.30;99.90
18173;DHT22;9211;48.818;9.312;2022-07-29T06:51:31;23.50;99.90
18173;DHT22;9211;48.818;9.312;2022-07-29T06:53:58;23.50;99.90
18173;DHT22;9211;48.818;9.312;2022-07-29T06:56:26;23.60;99.90
18173;DHT22;9211;48.818;9.312;2022-07-29T06:58:53;23.70;99.90
18173;DHT22;9211;48.818;9.312;2022-07-29T07:01:22;23.70;99.90
18173;DHT22;9211;48.818;9.312;2022-07-29T07:03:49;23.80;99.90
18173;DHT22;9211;48.818;9.312;2022-07-29T07:06:16;23.80;99.90
18173;DHT22;9211;48.818;9.312;2022-07-29T07:08:43;23.80;99.90
18173;DHT22;9211;48.818;9.312;2022-07-29T07:11:10;23.90;99.90
18173;DHT22;9211;48.818;9.312;2022-07-29T07:13:37;23.90;99.90
18173;DHT22;9211;48.818;9.312;2022-07-29T07:16:04;24.00;99.90
18173;DHT22;9211;48.818;9.312;2022-07-29T07:18:33;24.00;99.90
18173;DHT22;9211;48.818;9.312;2022-07-29T07:21:00;24.10;99.90
18173;DHT22;9211;48.818;9.312;2022-07-29T07:23:30;24.10;99.90
18173;DHT22;9211;48.818;9.312;2022-07-29T07:25:57;24.10;99.90
18173;DHT22;9211;48.818;9.312;2022-07-29T07:28:24;24.10;99.90
18173;DHT22;9211;48.818;9.312;2022-07-29T07:30:52;24.10;99.90
18173;DHT22;9211;48.818;9.312;2022-07-29T07:33:22;24.10;99.90
18173;DHT22;9211;48.818;9.312;2022-07-29T07:35:50;24.10;99.90
18173;DHT22;9211;48.818;9.312;2022-07-29T07:38:17;24.10;99.90
18173;DHT22;9211;48.818;9.312;2022-07-29T07:40:44;24.20;99.90
18173;DHT22;9211;48.818;9.312;2022-07-29T07:43:12;24.20;99.90
18173;DHT22;9211;48.818;9.312;2022-07-29T07:45:38;24.30;99.90
18173;DHT22;9211;48.818;9.312;2022-07-29T07:48:06;24.30;99.90
18173;DHT22;9211;48.818;9.312;2022-07-29T07:50:35;24.40;99.90
18173;DHT22;9211;48.818;9.312;2022-07-29T07:53:04;24.40;99.90
18173;DHT22;9211;48.818;9.312;2022-07-29T07:55:31;24.40;99.90
18173;DHT22;9211;48.818;9.312;2022-07-29T07:57:58;24.50;99.90
18173;DHT22;9211;48.818;9.312;2022-07-29T08:00:25;24.50;99.90
18173;DHT22;9211;48.818;9.312;2022-07-29T08:02:52;24.50;99.90
18173;DHT22;9211;48.818;9.312;2022-07-29T08:05:19;24.60;99.90
18173;DHT22;9211;48.818;9.312;2022-07-29T08:07:47;24.60;99.90
18173;DHT22;9211;48.818;9.312;2022-07-29T08:10:17;24.60;99.90
18173;DHT22;9211;48.818;9.312;2022-07-29T08:13:06;24.60;99.90
18173;DHT22;9211;48.818;9.312;2022-07-29T08:15:34;24.60;99.90
18173;DHT22;9211;48.818;9.312;2022-07-29T08:18:02;24.70;99.90
18173;DHT22;9211;48.818;9.312;2022-07-29T08:20:29;24.80;99.90
18173;DHT22;9211;48.818;9.312;2022-07-29T08:22:57;24.80;99.90
18173;DHT22;9211;48.818;9.312;2022-07-29T08:25:26;24.80;99.90
18173;DHT22;9211;48.818;9.312;2022-07-29T08:27:53;24.80;99.90
18173;DHT22;9211;48.818;9.312;2022-07-29T08:30:20;24.80;99.90
18173;DHT22;9211;48.818;9.312;2022-07-29T08:32:47;24.80;99.90
18173;DHT22;9211;48.818;9.312;2022-07-29T08:35:16;24.80;99.90
18173;DHT22;9211;48.818;9.312;2022-07-29T08:37:43;24.90;99.90
18173;DHT22;9211;48.818;9.312;2022-07-29T08:40:13;24.90;99.90
18173;DHT22;9211;48.818;9.312;2022-07-29T08:42:44;24.90;99.90
18173;DHT22;9211;48.818;9.312;2022-07-29T08:45:12;24.90;99.90
18173;DHT22;9211;48.818;9.312;2022-07-29T08:47:39;24.90;99.90
18173;DHT22;9211;48.818;9.312;2022-07-29T08:50:07;24.90;99.90
18173;DHT22;9211;48.818;9.312;2022-07-29T08:52:36;24.90;99.90
18173;DHT22;9211;48.818;9.312;2022-07-29T08:55:05;24.80;99.90
18173;DHT22;9211;48.818;9.312;2022-07-29T08:57:33;24.80;99.90
18173;DHT22;9211;48.818;9.312;2022-07-29T09:00:05;24.80;99.90
18173;DHT22;9211;48.818;9.312;2022-07-29T09:02:36;24.90;99.90
18173;DHT22;9211;48.818;9.312;2022-07-29T09:05:06;24.80;99.90
18173;DHT22;9211;48.818;9.312;2022-07-29T09:07:34;24.90;99.90
18173;DHT22;9211;48.818;9.312;2022-07-29T09:10:02;24.90;99.90
18173;DHT22;9211;48.818;9.312;2022-07-29T09:12:30;24.90;99.90
18173;DHT22;9211;48.818;9.312;2022-07-29T09:14:57;24.90;99.90
18173;DHT22;9211;48.818;9.312;2022-07-29T09:17:49;24.90;99.90
18173;DHT22;9211;48.818;9.312;2022-07-29T09:20:18;24.90;99.90
18173;DHT22;9211;48.818;9.312;2022-07-29T09:22:46;24.90;99.90
18173;DHT22;9211;48.818;9.312;2022-07-29T09:25:32;24.90;99.90
18173;DHT22;9211;48.818;9.312;2022-07-29T09:28:06;25.00;99.90
18173;DHT22;9211;48.818;9.312;2022-07-29T09:30:33;25.00;99.90
18173;DHT22;9211;48.818;9.312;2022-07-29T09:33:03;25.10;99.90
18173;DHT22;9211;48.818;9.312;2022-07-29T09:35:30;25.10;99.90
18173;DHT22;9211;48.818;9.312;2022-07-29T09:37:57;25.20;99.90
18173;DHT22;9211;48.818;9.312;2022-07-29T09:40:27;25.30;99.90
18173;DHT22;9211;48.818;9.312;2022-07-29T09:43:12;25.30;99.90
18173;DHT22;9211;48.818;9.312;2022-07-29T09:46:25;25.40;99.90
18173;DHT22;9211;48.818;9.312;2022-07-29T09:49:10;25.50;99.90
18173;DHT22;9211;48.818;9.312;2022-07-29T09:51:38;25.50;99.90
18173;DHT22;9211;48.818;9.312;2022-07-29T09:54:22;25.70;99.90
18173;DHT22;9211;48.818;9.312;2022-07-29T09:56:50;25.80;99.90
18173;DHT22;9211;48.818;9.312;2022-07-29T09:59:17;25.80;99.90
18173;DHT22;9211;48.818;9.312;2022-07-29T10:01:48;25.90;99.90
18173;DHT22;9211;48.818;9.312;2022-07-29T10:04:18;25.90;99.90
18173;DHT22;9211;48.818;9.312;2022-07-29T10:06:58;26.10;99.90
18173;DHT22;9211;48.818;9.312;2022-07-29T10:09:28;26.20;99.90
18173;DHT22;9211;48.818;9.312;2022-07-29T10:12:09;26.40;99.90
18173;DHT22;9211;48.818;9.312;2022-07-29T10:14:40;26.50;99.90
18173;DHT22;9211;48.818;9.312;2022-07-29T10:17:08;26.70;99.90
18173;DHT22;9211;48.818;9.312;2022-07-29T10:19:38;26.60;99.90
18173;DHT22;9211;48.818;9.312;2022-07-29T10:22:07;26.70;99.90
18173;DHT22;9211;48.818;9.312;2022-07-29T10:24:35;26.80;99.90
18173;DHT22;9211;48.818;9.312;2022-07-29T10:27:05;26.90;99.90
18173;DHT22;9211;48.818;9.312;2022-07-29T10:29:32;26.90;99.90
18173;DHT22;9211;48.818;9.312;2022-07-29T10:32:13;26.90;99.90
18173;DHT22;9211;48.818;9.312;2022-07-29T10:34:55;26.90;99.90
18173;DHT22;9211;48.818;9.312;2022-07-29T10:37:31;26.90;99.90
18173;DHT22;9211;48.818;9.312;2022-07-29T10:40:06;26.90;99.90
18173;DHT22;9211;48.818;9.312;2022-07-29T10:42:52;26.90;99.90
18173;DHT22;9211;48.818;9.312;2022-07-29T10:45:20;26.80;99.90
18173;DHT22;9211;48.818;9.312;2022-07-29T10:47:48;26.70;99.90
18173;DHT22;9211;48.818;9.312;2022-07-29T10:50:16;26.60;99.90
18173;DHT22;9211;48.818;9.312;2022-07-29T10:52:53;26.60;99.90
18173;DHT22;9211;48.818;9.312;2022-07-29T10:55:35;26.50;99.90
18173;DHT22;9211;48.818;9.312;2022-07-29T10:58:13;26.40;99.90
18173;DHT22;9211;48.818;9.312;2022-07-29T11:00:40;26.40;99.90
18173;DHT22;9211;48.818;9.312;2022-07-29T11:03:07;26.30;99.90
18173;DHT22;9211;48.818;9.312;2022-07-29T11:05:53;26.20;99.90
18173;DHT22;9211;48.818;9.312;2022-07-29T11:08:24;26.10;99.90
18173;DHT22;9211;48.818;9.312;2022-07-29T11:13:50;26.00;99.90
18173;DHT22;9211;48.818;9.312;2022-07-29T11:16:19;25.80;99.90
18173;DHT22;9211;48.818;9.312;2022-07-29T11:19:20;25.60;99.90
18173;DHT22;9211;48.818;9.312;2022-07-29T11:21:50;25.40;99.90
18173;DHT22;9211;48.818;9.312;2022-07-29T11:24:20;25.30;99.90
18173;DHT22;9211;48.818;9.312;2022-07-29T11:27:11;25.10;99.90
18173;DHT22;9211;48.818;9.312;2022-07-29T11:29:40;24.70;99.90
18173;DHT22;9211;48.818;9.312;2022-07-29T11:32:16;24.40;99.90
18173;DHT22;9211;48.818;9.312;2022-07-29T11:34:47;24.30;99.90
18173;DHT22;9211;48.818;9.312;2022-07-29T11:37:21;24.20;99.90
18173;DHT22;9211;48.818;9.312;2022-07-29T11:40:18;24.00;99.90
18173;DHT22;9211;48.818;9.312;2022-07-29T11:42:49;24.00;99.90
18173;DHT22;9211;48.818;9.312;2022-07-29T11:45:18;23.90;99.90
18173;DHT22;9211;48.818;9.312;2022-07-29T11:47:51;23.70;99.90
18173;DHT22;9211;48.818;9.312;2022-07-29T11:50:31;23.60;99.90
18173;DHT22;9211;48.818;9.312;2022-07-29T11:53:00;23.50;99.90
18173;DHT22;9211;48.818;9.312;2022-07-29T11:55:27;23.30;99.90
18173;DHT22;9211;48.818;9.312;2022-07-29T11:57:55;23.10;99.90
18173;DHT22;9211;48.818;9.312;2022-07-29T12:00:25;22.90;99.90
18173;DHT22;9211;48.818;9.312;2022-07-29T12:02:52;23.00;99.90
18173;DHT22;9211;48.818;9.312;2022-07-29T12:05:19;23.10;99.90
18173;DHT22;9211;48.818;9.312;2022-07-29T12:07:48;23.00;99.90
18173;DHT22;9211;48.818;9.312;2022-07-29T12:10:16;23.10;99.90
18173;DHT22;9211;48.818;9.312;2022-07-29T12:12:51;23.10;99.90
18173;DHT22;9211;48.818;9.312;2022-07-29T12:15:20;23.10;99.90
18173;DHT22;9211;48.818;9.312;2022-07-29T12:17:47;23.10;99.90
18173;DHT22;9211;48.818;9.312;2022-07-29T12:20:23;23.20;99.90
18173;DHT22;9211;48.818;9.312;2022-07-29T12:22:50;23.10;99.90
18173;DHT22;9211;48.818;9.312;2022-07-29T12:25:23;22.90;99.90
18173;DHT22;9211;48.818;9.312;2022-07-29T12:27:59;22.90;99.90
18173;DHT22;9211;48.818;9.312;2022-07-29T12:30:39;23.00;99.90
18173;DHT22;9211;48.818;9.312;2022-07-29T12:33:16;23.10;99.90
18173;DHT22;9211;48.818;9.312;2022-07-29T12:35:45;23.20;99.90
18173;DHT22;9211;48.818;9.312;2022-07-29T12:38:13;23.30;99.90
18173;DHT22;9211;48.818;9.312;2022-07-29T12:40:42;23.30;99.90
18173;DHT22;9211;48.818;9.312;2022-07-29T12:43:12;23.40;99.90
18173;DHT22;9211;48.818;9.312;2022-07-29T12:45:41;23.50;99.90
18173;DHT22;9211;48.818;9.312;2022-07-29T12:48:09;23.70;99.90
18173;DHT22;9211;48.818;9.312;2022-07-29T12:50:36;23.70;99.90
18173;DHT22;9211;48.818;9.312;2022-07-29T12:53:11;23.80;99.90
18173;DHT22;9211;48.818;9.312;2022-07-29T12:55:41;23.80;99.90
18173;DHT22;9211;48.818;9.312;2022-07-29T12:58:08;23.90;99.90
18173;DHT22;9211;48.818;9.312;2022-07-29T13:00:36;23.90;99.90
18173;DHT22;9211;48.818;9.312;2022-07-29T13:03:03;23.80;99.90
18173;DHT22;9211;48.818;9.312;2022-07-29T13:05:41;23.70;99.90
18173;DHT22;9211;48.818;9.312;2022-07-29T13:08:13;23.70;99.90
18173;DHT22;9211;48.818;9.312;2022-07-29T13:10:42;23.60;99.90
18173;DHT22;9211;48.818;9.312;2022-07-29T13:13:11;23.50;99.90
18173;DHT22;9211;48.818;9.312;2022-07-29T13:15:41;23.40;99.90
18173;DHT22;9211;48.818;9.312;2022-07-29T13:18:26;23.40;99.90
18173;DHT22;9211;48.818;9.312;2022-07-29T13:20:53;23.50;99.90
18173;DHT22;9211;48.818;9.312;2022-07-29T13:23:21;23.40;99.90
18173;DHT22;9211;48.818;9.312;2022-07-29T13:25:49;23.40;99.90
18173;DHT22;9211;48.818;9.312;2022-07-29T13:28:16;23.30;99.90
18173;DHT22;9211;48.818;9.312;2022-07-29T13:30:43;23.20;99.90
18173;DHT22;9211;48.818;9.312;2022-07-29T13:33:10;23.20;99.90
18173;DHT22;9211;48.818;9.312;2022-07-29T13:35:37;23.10;99.90
18173;DHT22;9211;48.818;9.312;2022-07-29T13:38:04;23.20;99.90
18173;DHT22;9211;48.818;9.312;2022-07-29T13:40:32;23.10;99.90
18173;DHT22;9211;48.818;9.312;2022-07-29T13:43:02;23.00;99.90
18173;DHT22;9211;48.818;9.312;2022-07-29T13:45:29;23.00;99.90
18173;DHT22;9211;48.818;9.312;2022-07-29T13:47:56;22.90;99.90
18173;DHT22;9211;48.818;9.312;2022-07-29T13:50:23;22.80;99.90
18173;DHT22;9211;48.818;9.312;2022-07-29T13:52:50;22.80;99.90
18173;DHT22;9211;48.818;9.312;2022-07-29T13:55:17;22.80;99.90
18173;DHT22;9211;48.818;9.312;2022-07-29T13:57:44;22.80;99.90
18173;DHT22;9211;48.818;9.312;2022-07-29T14:00:13;22.80;99.90
18173;DHT22;9211;48.818;9.312;2022-07-29T14:02:41;22.80;99.90
18173;DHT22;9211;48.818;9.312;2022-07-29T14:05:08;22.80;99.90
18173;DHT22;9211;48.818;9.312;2022-07-29T14:07:36;22.80;99.90
18173;DHT22;9211;48.818;9.312;2022-07-29T14:10:05;22.90;99.90
18173;DHT22;9211;48.818;9.312;2022-07-29T14:12:32;23.10;99.90
18173;DHT22;9211;48.818;9.312;2022-07-29T14:14:59;23.20;99.90
18173;DHT22;9211;48.818;9.312;2022-07-29T14:17:28;23.30;99.90
18173;DHT22;9211;48.818;9.312;2022-07-29T14:19:54;23.40;99.90
18173;DHT22;9211;48.818;9.312;2022-07-29T14:22:22;23.60;99.90
18173;DHT22;9211;48.818;9.312;2022-07-29T14:24:50;23.70;99.90
18173;DHT22;9211;48.818;9.312;2022-07-29T14:27:17;23.70;99.90
18173;DHT22;9211;48.818;9.312;2022-07-29T14:29:44;23.70;99.90
18173;DHT22;9211;48.818;9.312;2022-07-29T14:32:11;23.70;99.90
18173;DHT22;9211;48.818;9.312;2022-07-29T14:34:41;23.80;99.90
18173;DHT22;9211;48.818;9.312;2022-07-29T14:37:08;23.90;99.90
18173;DHT22;9211;48.818;9.312;2022-07-29T14:39:35;23.90;99.90
18173;DHT22;9211;48.818;9.312;2022-07-29T14:42:04;23.80;99.90
18173;DHT22;9211;48.818;9.312;2022-07-29T14:44:31;23.90;99.90
18173;DHT22;9211;48.818;9.312;2022-07-29T14:46:58;23.90;99.90
18173;DHT22;9211;48.818;9.312;2022-07-29T14:49:26;24.00;99.90
18173;DHT22;9211;48.818;9.312;2022-07-29T14:51:54;24.20;99.90
18173;DHT22;9211;48.818;9.312;2022-07-29T14:54:21;24.20;99.90
18173;DHT22;9211;48.818;9.312;2022-07-29T14:56:48;24.20;99.90
18173;DHT22;9211;48.818;9.312;2022-07-29T14:59:16;24.20;99.90
18173;DHT22;9211;48.818;9.312;2022-07-29T15:01:44;24.20;99.90
18173;DHT22;9211;48.818;9.312;2022-07-29T15:04:11;24.30;99.90
18173;DHT22;9211;48.818;9.312;2022-07-29T15:06:38;24.30;99.90
18173;DHT22;9211;48.818;9.312;2022-07-29T15:09:06;24.30;99.90
18173;DHT22;9211;48.818;9.312;2022-07-29T15:11:33;24.30;99.90
18173;DHT22;9211;48.818;9.312;2022-07-29T15:14:00;24.30;99.90
18173;DHT22;9211;48.818;9.312;2022-07-29T15:16:27;24.30;99.90
18173;DHT22;9211;48.818;9.312;2022-07-29T15:18:54;24.30;99.90
18173;DHT22;9211;48.818;9.312;2022-07-29T15:21:23;24.30;99.90
18173;DHT22;9211;48.818;9.312;2022-07-29T15:23:50;24.20;99.90
18173;DHT22;9211;48.818;9.312;2022-07-29T15:26:18;24.20;99.90
18173;DHT22;9211;48.818;9.312;2022-07-29T15:28:45;24.30;99.90
18173;DHT22;9211;48.818;9.312;2022-07-29T15:31:12;24.30;99.90
18173;DHT22;9211;48.818;9.312;2022-07-29T15:33:39;24.30;99.90
18173;DHT22;9211;48.818;9.312;2022-07-29T15:36:07;24.30;99.90
18173;DHT22;9211;48.818;9.312;2022-07-29T15:38:34;24.30;99.90
18173;DHT22;9211;48.818;9.312;2022-07-29T15:41:01;24.30;99.90
18173;DHT22;9211;48.818;9.312;2022-07-29T15:43:29;24.30;99.90
18173;DHT22;9211;48.818;9.312;2022-07-29T15:45:56;24.20;99.90
18173;DHT22;9211;48.818;9.312;2022-07-29T15:48:49;24.20;99.90
18173;DHT22;9211;48.818;9.312;2022-07-29T15:51:16;24.20;99.90
18173;DHT22;9211;48.818;9.312;2022-07-29T15:53:43;24.20;99.90
18173;DHT22;9211;48.818;9.312;2022-07-29T15:56:11;24.10;99.90
18173;DHT22;9211;48.818;9.312;2022-07-29T15:58:39;24.10;99.90
18173;DHT22;9211;48.818;9.312;2022-07-29T16:01:06;24.10;99.90
18173;DHT22;9211;48.818;9.312;2022-07-29T16:03:33;24.10;99.90
18173;DHT22;9211;48.818;9.312;2022-07-29T16:06:00;24.20;99.90